Time;durP1;ratioP1;P1;durP2;ratioP2;P2;SDS_P1;SDS_P2;PMS_P1;PMS_P2;Temp;Humidity;BMP_temperature;BMP_pressure;BME280_temperature;BME280_humidity;BME280_pressure;Samples;Min_cycle;Max_cycle;Signal;HPM_P1;HPM_P2
2022/01/10 00:00:49;;;;;;;12.00;4.10;;;9.50;99.90;;;;;;5043138;28;20123;-65
2022/01/10 00:03:15;;;;;;;7.15;3.92;;;9.50;99.90;;;;;;5044918;28;20064;-66
2022/01/10 00:05:41;;;;;;;12.75;4.28;;;9.50;99.90;;;;;;5044343;28;20036;-65
2022/01/10 00:08:08;;;;;;;10.93;4.20;;;9.50;99.90;;;;;;5044767;28;20036;-65
2022/01/10 00:10:35;;;;;;;16.08;4.97;;;9.00;99.90;;;;;;5032466;28;20056;-65
2022/01/10 00:13:01;;;;;;;10.70;3.83;;;10.20;99.90;;;;;;5040712;28;20043;-65
2022/01/10 00:15:27;;;;;;;12.10;4.00;;;9.50;99.90;;;;;;5039405;28;20450;-65
2022/01/10 00:17:53;;;;;;;10.60;4.50;;;9.50;99.90;;;;;;5045013;28;20033;-65
2022/01/10 00:20:19;;;;;;;10.82;4.80;;;9.60;99.90;;;;;;5045204;28;20107;-65
2022/01/10 00:22:48;;;;;;;10.73;4.50;;;9.50;99.90;;;;;;5031990;28;20505;-65
2022/01/10 00:25:15;;;;;;;15.40;5.10;;;9.60;99.90;;;;;;5038831;28;20033;-65
2022/01/10 00:27:41;;;;;;;12.23;5.10;;;9.60;99.90;;;;;;5039199;28;20048;-65
2022/01/10 00:30:10;;;;;;;13.05;5.30;;;8.40;99.90;;;;;;5043672;28;20041;-65
2022/01/10 00:32:37;;;;;;;13.63;5.50;;;9.60;99.90;;;;;;5043527;28;20047;-65
2022/01/10 00:35:03;;;;;;;14.40;5.32;;;9.60;99.90;;;;;;5038887;28;20066;-65
2022/01/10 00:37:28;;;;;;;12.65;5.53;;;9.60;99.90;;;;;;5046754;28;20082;-65
2022/01/10 00:39:54;;;;;;;15.20;6.03;;;9.60;99.90;;;;;;5040886;28;20053;-65
2022/01/10 00:42:20;;;;;;;17.75;5.60;;;9.00;99.90;;;;;;5042687;28;20033;-65
2022/01/10 00:44:51;;;;;;;15.90;5.97;;;9.60;99.90;;;;;;5047966;28;20480;-65
2022/01/10 00:47:17;;;;;;;16.02;5.65;;;9.50;99.90;;;;;;5048500;28;20044;-65
2022/01/10 00:49:44;;;;;;;13.52;5.93;;;9.50;99.90;;;;;;5043528;28;20079;-65
2022/01/10 00:52:10;;;;;;;17.23;5.90;;;9.60;99.90;;;;;;5037718;28;20041;-65
2022/01/10 00:54:36;;;;;;;19.08;6.20;;;9.60;99.90;;;;;;5040461;28;20029;-65
2022/01/10 00:57:02;;;;;;;17.10;6.93;;;9.60;99.90;;;;;;5047766;28;20021;-65
2022/01/10 00:59:29;;;;;;;13.38;6.00;;;9.60;99.90;;;;;;5046211;28;20032;-65
2022/01/10 01:01:55;;;;;;;14.73;5.82;;;9.60;99.90;;;;;;5050061;28;20072;-65
2022/01/10 01:04:20;;;;;;;13.98;6.03;;;9.50;99.90;;;;;;5042571;28;20067;-65
2022/01/10 01:06:47;;;;;;;13.88;6.50;;;9.50;99.90;;;;;;5046346;28;20033;-66
2022/01/10 01:09:16;;;;;;;16.55;6.43;;;9.50;99.90;;;;;;5045671;28;20029;-66
2022/01/10 01:12:08;;;;;;;17.58;7.03;;;9.50;99.90;;;;;;5047873;28;20569;-65
2022/01/10 01:17:13;;;;;;;19.15;7.85;;;9.50;99.90;;;;;;5051164;28;20029;-65
2022/01/10 01:25:11;;;;;;;19.55;8.80;;;9.50;99.90;;;;;;5040426;28;20445;-65
2022/01/10 01:27:38;;;;;;;25.70;8.77;;;9.50;99.90;;;;;;5046284;28;20095;-65
2022/01/10 01:30:05;;;;;;;16.33;7.55;;;9.50;99.90;;;;;;5043924;28;20364;-65
2022/01/10 01:32:30;;;;;;;16.17;8.02;;;9.50;99.90;;;;;;5044449;28;20044;-65
2022/01/10 01:35:03;;;;;;;15.05;7.72;;;9.50;99.90;;;;;;5049958;28;20021;-65
2022/01/10 01:37:29;;;;;;;18.00;7.70;;;9.50;99.90;;;;;;5045731;28;20412;-65
2022/01/10 01:39:56;;;;;;;19.38;8.13;;;9.50;99.90;;;;;;5044022;28;20086;-65
2022/01/10 01:42:42;;;;;;;14.13;7.82;;;10.60;99.90;;;;;;5046134;28;20404;-65
2022/01/10 01:45:11;;;;;;;17.02;7.70;;;9.50;99.90;;;;;;5045638;28;20037;-65
2022/01/10 01:47:38;;;;;;;15.43;7.50;;;9.50;99.90;;;;;;5042265;28;20036;-65
2022/01/10 01:50:07;;;;;;;18.35;8.13;;;9.50;99.90;;;;;;5049078;28;20151;-65
2022/01/10 01:52:33;;;;;;;16.13;8.48;;;8.70;99.90;;;;;;5035045;28;20484;-65
2022/01/10 01:54:59;;;;;;;20.60;8.18;;;9.40;99.90;;;;;;5044407;28;20024;-65
2022/01/10 01:57:26;;;;;;;13.00;6.90;;;9.50;99.90;;;;;;5047757;28;20033;-65
2022/01/10 01:59:52;;;;;;;17.02;8.15;;;9.50;99.90;;;;;;5046292;28;20021;-66
2022/01/10 02:02:19;;;;;;;15.98;8.23;;;9.50;99.90;;;;;;5039054;28;20458;-65
2022/01/10 02:04:44;;;;;;;15.95;6.63;;;9.50;99.90;;;;;;5041267;28;20295;-65
2022/01/10 02:07:10;;;;;;;15.27;6.65;;;9.50;99.90;;;;;;5044013;28;20078;-65
2022/01/10 02:09:36;;;;;;;14.95;6.30;;;9.50;99.90;;;;;;5047089;28;20028;-65
2022/01/10 02:12:02;;;;;;;17.73;6.88;;;9.50;99.90;;;;;;5045711;28;20041;-65
2022/01/10 02:14:28;;;;;;;17.55;7.15;;;9.50;99.90;;;;;;5046354;28;20031;-65
2022/01/10 02:16:55;;;;;;;15.65;6.78;;;9.50;99.90;;;;;;5040369;28;20036;-65
2022/01/10 02:19:21;;;;;;;17.90;6.93;;;10.40;99.90;;;;;;5043207;28;20025;-65
2022/01/10 02:21:47;;;;;;;16.75;6.93;;;9.50;99.90;;;;;;5039802;28;20079;-65
2022/01/10 02:24:13;;;;;;;15.20;7.15;;;9.50;99.90;;;;;;5038018;28;20033;-65
2022/01/10 02:26:39;;;;;;;14.38;6.72;;;9.50;99.90;;;;;;5046388;28;20120;-65
2022/01/10 02:29:06;;;;;;;16.25;7.80;;;9.50;99.90;;;;;;5040460;28;20048;-65
2022/01/10 02:31:40;;;;;;;16.40;7.43;;;9.50;99.90;;;;;;5043222;28;20075;-65
2022/01/10 02:34:06;;;;;;;16.95;7.68;;;9.50;99.90;;;;;;5044944;28;20122;-65
2022/01/10 02:36:32;;;;;;;16.75;7.47;;;9.50;99.90;;;;;;5045338;28;20027;-65
2022/01/10 02:39:01;;;;;;;15.60;7.32;;;9.50;99.90;;;;;;5045506;28;20021;-65
2022/01/10 02:41:32;;;;;;;18.75;7.88;;;9.50;99.90;;;;;;5036791;28;20025;-65
2022/01/10 02:44:01;;;;;;;14.13;7.75;;;9.50;99.90;;;;;;5044104;28;20024;-65
2022/01/10 02:46:30;;;;;;;15.70;6.65;;;9.40;99.90;;;;;;5037781;28;20029;-65
2022/01/10 02:48:56;;;;;;;16.33;7.95;;;9.00;99.90;;;;;;5042768;28;20504;-65
2022/01/10 02:51:23;;;;;;;16.08;7.35;;;9.40;99.90;;;;;;5046793;28;20029;-65
2022/01/10 02:53:49;;;;;;;13.80;7.13;;;9.40;99.90;;;;;;5044755;28;20038;-66
2022/01/10 02:56:15;;;;;;;14.43;7.00;;;9.40;99.90;;;;;;5044036;28;20051;-65
2022/01/10 02:58:41;;;;;;;15.35;7.03;;;9.90;99.90;;;;;;5046356;28;20029;-65
2022/01/10 03:01:07;;;;;;;13.27;6.65;;;7.10;99.90;;;;;;5044411;28;20516;-65
2022/01/10 03:03:33;;;;;;;13.57;6.40;;;9.30;99.90;;;;;;5043891;28;20323;-65
2022/01/10 03:06:00;;;;;;;11.00;6.50;;;11.20;99.90;;;;;;5041401;28;20017;-65
2022/01/10 03:08:27;;;;;;;10.00;6.07;;;9.00;99.90;;;;;;5046738;28;20607;-65
2022/01/10 03:10:54;;;;;;;14.02;6.10;;;9.00;99.90;;;;;;5036397;28;20026;-65
2022/01/10 03:13:20;;;;;;;17.55;6.47;;;9.00;99.90;;;;;;5042860;28;20041;-65
2022/01/10 03:15:46;;;;;;;13.93;6.60;;;9.40;99.90;;;;;;5039360;28;20021;-65
2022/01/10 03:18:12;;;;;;;14.45;7.15;;;9.30;99.90;;;;;;5040769;28;20132;-65
2022/01/10 03:20:38;;;;;;;13.07;6.47;;;9.30;99.90;;;;;;5039911;28;20051;-65
2022/01/10 03:23:04;;;;;;;18.33;7.10;;;9.30;99.90;;;;;;5039718;28;20064;-65
2022/01/10 03:25:29;;;;;;;17.90;7.18;;;9.30;99.90;;;;;;5043822;28;20420;-65
2022/01/10 03:27:56;;;;;;;13.32;6.43;;;9.30;99.90;;;;;;5040004;28;20599;-65
2022/01/10 03:30:21;;;;;;;14.18;6.53;;;9.30;99.90;;;;;;5034414;28;20017;-65
2022/01/10 03:32:50;;;;;;;13.77;5.93;;;9.30;99.90;;;;;;5046214;28;20051;-65
2022/01/10 03:35:16;;;;;;;14.23;7.15;;;9.30;99.90;;;;;;5045134;28;20031;-65
2022/01/10 03:37:42;;;;;;;14.32;6.22;;;9.30;99.90;;;;;;5040930;28;20515;-65
2022/01/10 03:40:09;;;;;;;11.15;6.07;;;9.30;99.90;;;;;;5040128;28;20037;-65
2022/01/10 03:42:35;;;;;;;13.23;6.55;;;9.30;99.90;;;;;;5040271;28;20033;-65
2022/01/10 03:45:03;;;;;;;12.65;6.10;;;9.30;99.90;;;;;;5044189;28;20116;-65
2022/01/10 03:47:29;;;;;;;11.63;6.32;;;9.30;99.90;;;;;;5037518;28;20487;-65
2022/01/10 03:49:54;;;;;;;13.05;6.45;;;9.40;99.90;;;;;;5045032;28;20070;-65
2022/01/10 03:52:20;;;;;;;12.40;6.50;;;9.40;99.90;;;;;;5033866;28;20041;-65
2022/01/10 03:54:46;;;;;;;13.35;6.38;;;9.40;99.90;;;;;;5040411;28;20109;-65
2022/01/10 03:57:11;;;;;;;13.00;6.80;;;9.40;99.90;;;;;;5044436;28;20071;-65
2022/01/10 03:59:38;;;;;;;16.15;6.82;;;9.40;99.90;;;;;;5044248;28;20098;-65
2022/01/10 04:02:04;;;;;;;13.60;7.25;;;8.40;99.90;;;;;;5043752;28;20136;-65
2022/01/10 04:04:30;;;;;;;17.70;7.07;;;9.40;99.90;;;;;;5039728;28;20068;-65
2022/01/10 04:06:56;;;;;;;12.00;6.65;;;9.40;99.90;;;;;;5042934;28;20500;-65
2022/01/10 04:09:22;;;;;;;12.52;7.20;;;9.40;99.90;;;;;;5042987;28;20101;-65
2022/01/10 04:11:48;;;;;;;15.30;7.78;;;9.40;99.90;;;;;;5042992;28;20104;-65
2022/01/10 04:14:14;;;;;;;13.52;7.32;;;9.40;99.90;;;;;;5043254;28;20033;-65
2022/01/10 04:16:40;;;;;;;14.23;7.70;;;9.40;99.90;;;;;;5037359;28;20043;-65
2022/01/10 04:19:07;;;;;;;16.30;7.70;;;9.40;99.90;;;;;;5041213;28;20422;-65
2022/01/10 04:21:33;;;;;;;13.38;7.30;;;9.40;99.90;;;;;;5038388;28;20116;-65
2022/01/10 04:23:58;;;;;;;14.23;7.53;;;9.40;99.90;;;;;;5035359;28;20104;-65
2022/01/10 04:26:24;;;;;;;12.93;6.80;;;9.40;99.90;;;;;;5044448;28;20040;-65
2022/01/10 04:28:50;;;;;;;11.27;6.93;;;9.40;99.90;;;;;;5031006;28;20039;-65
2022/01/10 04:31:16;;;;;;;13.73;7.10;;;9.70;99.90;;;;;;5028053;28;20037;-66
2022/01/10 04:33:42;;;;;;;13.10;7.15;;;9.40;99.90;;;;;;5030785;28;20044;-65
2022/01/10 04:36:08;;;;;;;12.38;6.72;;;7.60;99.90;;;;;;5041361;28;20392;-65
2022/01/10 04:38:35;;;;;;;13.82;7.07;;;;;;;;;;5038812;28;20033;-65
2022/01/10 04:41:02;;;;;;;14.52;7.00;;;7.40;99.90;;;;;;5035261;28;20037;-65
2022/01/10 04:43:29;;;;;;;11.77;6.43;;;9.20;99.90;;;;;;5033620;28;20030;-65
2022/01/10 04:45:55;;;;;;;10.50;6.60;;;;;;;;;;5034646;28;20021;-65
2022/01/10 04:48:21;;;;;;;10.88;6.60;;;9.20;99.90;;;;;;5043028;28;20027;-65
2022/01/10 04:53:32;;;;;;;10.65;6.07;;;9.20;99.90;;;;;;5044730;28;20059;-65
2022/01/10 04:55:58;;;;;;;11.07;6.45;;;9.30;99.90;;;;;;5042522;28;20025;-65
2022/01/10 04:58:24;;;;;;;10.20;5.75;;;9.20;99.90;;;;;;5034180;28;20117;-65
2022/01/10 05:00:53;;;;;;;10.23;5.90;;;9.30;99.90;;;;;;5038592;28;20511;-65
2022/01/10 05:03:19;;;;;;;11.60;6.57;;;8.00;99.90;;;;;;5028903;28;20029;-65
2022/01/10 05:05:45;;;;;;;9.15;5.03;;;9.30;99.90;;;;;;5043455;28;20070;-65
2022/01/10 05:08:12;;;;;;;9.45;5.22;;;8.90;99.90;;;;;;5045868;28;20028;-66
2022/01/10 05:10:37;;;;;;;7.97;4.90;;;9.10;99.90;;;;;;5041143;28;20141;-65
2022/01/10 05:13:03;;;;;;;9.73;5.13;;;8.90;99.90;;;;;;5040814;28;20581;-66
2022/01/10 05:15:29;;;;;;;7.47;4.50;;;9.30;99.90;;;;;;5042061;28;20095;-65
2022/01/10 05:17:55;;;;;;;6.80;4.18;;;9.30;99.90;;;;;;5036793;28;20148;-65
2022/01/10 05:20:20;;;;;;;7.80;4.53;;;9.30;99.90;;;;;;5045090;28;20056;-66
2022/01/10 05:22:46;;;;;;;9.13;4.90;;;9.30;99.90;;;;;;5032455;28;20456;-65
2022/01/10 05:25:12;;;;;;;8.55;4.40;;;9.30;99.90;;;;;;5046409;28;20025;-66
2022/01/10 05:27:37;;;;;;;8.65;4.65;;;9.30;99.90;;;;;;5042290;28;20029;-66
2022/01/10 05:30:04;;;;;;;8.93;4.78;;;9.30;99.90;;;;;;5047314;28;20061;-65
2022/01/10 05:32:30;;;;;;;7.72;4.75;;;8.90;99.90;;;;;;5049399;28;20037;-66
2022/01/10 05:34:56;;;;;;;6.82;4.47;;;8.60;99.90;;;;;;5049450;28;20384;-66
2022/01/10 05:37:21;;;;;;;10.20;5.10;;;9.30;99.90;;;;;;5044664;28;20032;-66
2022/01/10 05:39:47;;;;;;;10.32;5.22;;;9.30;99.90;;;;;;5041413;28;20118;-65
2022/01/10 05:42:14;;;;;;;9.32;5.22;;;9.30;99.90;;;;;;5039876;28;20079;-66
2022/01/10 05:44:40;;;;;;;9.38;5.03;;;9.30;99.90;;;;;;5046424;28;20114;-65
2022/01/10 05:47:06;;;;;;;9.00;4.75;;;9.30;99.90;;;;;;5039800;28;20025;-66
2022/01/10 05:49:34;;;;;;;10.30;5.07;;;9.30;99.90;;;;;;5045672;28;20033;-66
2022/01/10 05:52:01;;;;;;;9.02;4.70;;;9.30;99.90;;;;;;5048419;28;20039;-66
2022/01/10 05:54:27;;;;;;;7.80;5.05;;;9.30;99.90;;;;;;5045878;28;20086;-65
2022/01/10 05:56:53;;;;;;;9.73;4.90;;;9.30;99.90;;;;;;5047111;28;20028;-66
2022/01/10 05:59:19;;;;;;;7.00;4.40;;;9.30;99.90;;;;;;5036097;28;20021;-65
2022/01/10 06:01:44;;;;;;;7.85;4.75;;;9.30;99.90;;;;;;5044947;28;20107;-65
2022/01/10 06:04:10;;;;;;;7.60;4.35;;;8.90;99.90;;;;;;5045326;28;20504;-65
2022/01/10 06:06:36;;;;;;;7.45;4.53;;;10.30;99.90;;;;;;5044601;28;20048;-65
2022/01/10 06:09:03;;;;;;;9.18;5.35;;;9.30;99.90;;;;;;5047219;28;20054;-65
2022/01/10 06:11:29;;;;;;;10.88;5.07;;;9.70;99.90;;;;;;5048802;28;20114;-65
2022/01/10 06:13:55;;;;;;;9.65;5.50;;;10.40;99.90;;;;;;5052950;28;20404;-64
2022/01/10 06:16:20;;;;;;;9.45;5.78;;;8.70;99.90;;;;;;5043420;28;20032;-65
2022/01/10 06:18:46;;;;;;;9.15;5.13;;;9.20;99.90;;;;;;5043211;28;20468;-64
2022/01/10 06:21:12;;;;;;;9.25;5.47;;;9.00;99.90;;;;;;5054292;28;20029;-65
2022/01/10 06:23:38;;;;;;;8.23;5.50;;;10.60;99.90;;;;;;5048811;28;20106;-65
2022/01/10 06:26:04;;;;;;;9.38;5.50;;;9.10;99.90;;;;;;5046533;28;20037;-64
2022/01/10 06:28:29;;;;;;;10.35;5.70;;;9.30;99.90;;;;;;5043525;28;20566;-65
2022/01/10 06:30:55;;;;;;;9.10;6.00;;;9.30;99.90;;;;;;5045386;28;20128;-65
2022/01/10 06:33:21;;;;;;;10.98;5.80;;;8.90;99.90;;;;;;5036444;28;20033;-65
2022/01/10 06:35:47;;;;;;;6.97;3.30;;;;;;;;;;5040318;28;20063;-65
2022/01/10 06:38:13;;;;;;;9.02;4.95;;;10.30;99.90;;;;;;5044395;28;20032;-65
2022/01/10 06:40:38;;;;;;;8.45;4.60;;;9.30;99.90;;;;;;5039130;28;20025;-65
2022/01/10 06:43:05;;;;;;;9.65;4.88;;;9.30;99.90;;;;;;5036555;28;20194;-65
2022/01/10 06:45:30;;;;;;;8.75;4.43;;;8.80;99.90;;;;;;5039922;28;20100;-64
2022/01/10 06:47:57;;;;;;;9.13;4.47;;;8.60;99.90;;;;;;5045829;28;20104;-65
2022/01/10 06:50:23;;;;;;;11.27;4.97;;;9.10;99.90;;;;;;5046215;28;20025;-65
2022/01/10 06:52:51;;;;;;;10.32;4.88;;;7.80;99.90;;;;;;5046890;28;20094;-64
2022/01/10 06:55:16;;;;;;;11.20;4.95;;;9.30;99.90;;;;;;5039168;28;20503;-65
2022/01/10 06:57:42;;;;;;;8.23;4.78;;;9.30;99.90;;;;;;5036019;28;20029;-65
2022/01/10 07:00:09;;;;;;;10.80;5.53;;;9.40;99.90;;;;;;5039166;28;20037;-65
2022/01/10 07:02:35;;;;;;;10.02;5.45;;;9.30;99.90;;;;;;5045029;28;20060;-65
2022/01/10 07:05:01;;;;;;;11.07;5.32;;;9.80;99.90;;;;;;5038374;28;20389;-64
2022/01/10 07:07:26;;;;;;;10.40;5.57;;;9.20;99.90;;;;;;5043673;28;20048;-64
2022/01/10 07:09:52;;;;;;;11.52;5.63;;;9.30;99.90;;;;;;5046105;28;20479;-65
2022/01/10 07:12:18;;;;;;;10.15;5.32;;;9.30;99.90;;;;;;5045096;28;20025;-64
2022/01/10 07:14:43;;;;;;;9.77;5.78;;;9.30;99.90;;;;;;5044380;28;20377;-65
2022/01/10 07:17:09;;;;;;;15.13;6.13;;;9.30;99.90;;;;;;5039036;28;20024;-65
2022/01/10 07:19:36;;;;;;;12.73;6.70;;;9.30;99.90;;;;;;5043957;28;20025;-65
2022/01/10 07:22:03;;;;;;;14.68;7.00;;;9.30;99.90;;;;;;5042662;28;20041;-65
2022/01/10 07:24:29;;;;;;;14.93;7.70;;;9.30;99.90;;;;;;5043423;28;20374;-65
2022/01/10 07:26:54;;;;;;;15.23;7.72;;;9.70;99.90;;;;;;5030625;28;20417;-65
2022/01/10 07:29:20;;;;;;;15.10;8.15;;;9.30;99.90;;;;;;5048176;28;20467;-65
2022/01/10 07:31:46;;;;;;;16.02;8.50;;;9.30;99.90;;;;;;5043691;28;20033;-65
2022/01/10 07:34:15;;;;;;;13.23;7.72;;;9.30;99.90;;;;;;5039777;28;20045;-65
2022/01/10 07:36:42;;;;;;;14.05;7.78;;;9.30;99.90;;;;;;5040620;28;20104;-65
2022/01/10 07:39:07;;;;;;;16.92;9.27;;;9.30;99.90;;;;;;5034256;28;20080;-65
2022/01/10 07:41:33;;;;;;;16.60;9.60;;;8.50;99.90;;;;;;5045769;28;20512;-65
2022/01/10 07:43:59;;;;;;;18.98;10.13;;;9.30;99.90;;;;;;5054666;28;20027;-65
2022/01/10 07:46:26;;;;;;;20.08;10.35;;;9.30;99.90;;;;;;5041469;28;20026;-65
2022/01/10 07:48:54;;;;;;;22.70;11.18;;;9.20;99.90;;;;;;5047960;28;20056;-65
2022/01/10 07:51:21;;;;;;;21.50;11.07;;;9.30;99.90;;;;;;5044304;28;20025;-65
2022/01/10 07:53:47;;;;;;;25.40;11.93;;;9.20;99.90;;;;;;5040059;28;20103;-65
2022/01/10 07:56:15;;;;;;;21.75;11.32;;;10.20;99.90;;;;;;5033416;28;20026;-66
2022/01/10 07:58:46;;;;;;;25.70;11.25;;;9.40;99.90;;;;;;5037587;28;20066;-65
2022/01/10 08:01:14;;;;;;;23.02;11.52;;;9.20;99.90;;;;;;5037912;28;20045;-66
2022/01/10 08:03:42;;;;;;;25.83;11.90;;;9.30;99.90;;;;;;5045349;28;20425;-65
2022/01/10 08:06:08;;;;;;;23.30;11.52;;;9.30;99.90;;;;;;5043870;28;20026;-65
2022/01/10 08:08:35;;;;;;;20.10;10.40;;;8.90;99.90;;;;;;5044040;28;20032;-65
2022/01/10 08:11:01;;;;;;;18.70;8.50;;;8.90;99.90;;;;;;5045271;28;20466;-65
2022/01/10 08:13:27;;;;;;;15.27;7.20;;;10.70;99.90;;;;;;5041691;28;20576;-65
2022/01/10 08:15:52;;;;;;;16.35;7.40;;;10.40;99.90;;;;;;5045431;28;20029;-65
2022/01/10 08:18:19;;;;;;;16.30;7.95;;;8.20;99.90;;;;;;5041845;28;20036;-65
2022/01/10 08:20:44;;;;;;;13.98;6.95;;;9.10;99.90;;;;;;5045694;28;20083;-65
2022/01/10 08:23:11;;;;;;;17.58;7.18;;;9.30;99.90;;;;;;5037718;28;20033;-65
2022/01/10 08:25:36;;;;;;;19.55;8.57;;;10.00;99.90;;;;;;5041212;28;20489;-65
2022/01/10 08:28:02;;;;;;;12.55;6.55;;;11.30;99.90;;;;;;5039931;28;20026;-65
2022/01/10 08:30:28;;;;;;;15.50;6.40;;;9.40;99.90;;;;;;5038104;28;20424;-65
2022/01/10 08:32:54;;;;;;;13.73;7.28;;;9.40;99.90;;;;;;5052265;28;20045;-65
2022/01/10 08:35:20;;;;;;;14.65;7.10;;;9.30;99.90;;;;;;5036800;28;20029;-65
2022/01/10 08:37:46;;;;;;;12.95;6.70;;;9.40;99.90;;;;;;5042033;28;20432;-65
2022/01/10 08:40:13;;;;;;;15.60;6.78;;;9.50;99.90;;;;;;5038806;28;20140;-65
2022/01/10 08:42:39;;;;;;;14.60;7.07;;;9.10;99.90;;;;;;5037799;28;20028;-64
2022/01/10 08:45:08;;;;;;;13.90;6.85;;;4.30;99.90;;;;;;5045660;28;20499;-65
2022/01/10 08:47:34;;;;;;;14.60;7.50;;;9.80;99.90;;;;;;5044483;28;20048;-65
2022/01/10 08:49:59;;;;;;;13.98;6.57;;;9.50;99.90;;;;;;5047086;28;20036;-65
2022/01/10 08:52:25;;;;;;;14.18;6.22;;;9.50;99.90;;;;;;5039833;28;20025;-65
2022/01/10 08:54:51;;;;;;;12.98;7.32;;;9.50;99.90;;;;;;5040812;28;20033;-65
2022/01/10 08:57:18;;;;;;;11.70;6.63;;;9.60;99.90;;;;;;5049226;28;20025;-65
2022/01/10 08:59:44;;;;;;;11.57;5.60;;;9.60;99.90;;;;;;5048095;28;20029;-65
2022/01/10 09:02:11;;;;;;;10.35;4.57;;;9.60;99.90;;;;;;5048599;28;20071;-65
2022/01/10 09:04:38;;;;;;;11.00;4.95;;;9.60;99.90;;;;;;5049328;28;20061;-66
2022/01/10 09:07:05;;;;;;;9.77;4.65;;;9.60;99.90;;;;;;5045909;28;20373;-65
2022/01/10 09:09:32;;;;;;;10.70;5.20;;;9.60;99.90;;;;;;5047645;28;20029;-65
2022/01/10 09:11:57;;;;;;;9.18;4.68;;;9.70;99.90;;;;;;5048390;28;20382;-65
2022/01/10 09:14:23;;;;;;;8.73;4.72;;;8.60;99.90;;;;;;5050063;28;20549;-65
2022/01/10 09:16:49;;;;;;;8.88;4.70;;;10.10;99.90;;;;;;5050639;28;20028;-65
2022/01/10 09:19:15;;;;;;;12.90;5.68;;;11.00;99.90;;;;;;5048342;28;20036;-65
2022/01/10 09:21:41;;;;;;;10.10;5.60;;;9.70;99.90;;;;;;5044584;28;20511;-65
2022/01/10 09:24:06;;;;;;;10.02;5.45;;;9.70;99.90;;;;;;5038811;28;20120;-65
2022/01/10 09:26:32;;;;;;;10.13;4.50;;;9.70;99.90;;;;;;5047148;28;20075;-65
2022/01/10 09:28:59;;;;;;;10.63;5.32;;;9.80;99.90;;;;;;5044225;28;20024;-65
2022/01/10 09:31:26;;;;;;;12.65;6.03;;;10.10;99.90;;;;;;5047083;28;20021;-65
2022/01/10 09:33:54;;;;;;;9.57;5.18;;;8.50;99.90;;;;;;5044706;28;20040;-65
2022/01/10 09:36:22;;;;;;;9.63;5.10;;;9.80;99.90;;;;;;5040939;28;20025;-65
2022/01/10 09:38:49;;;;;;;9.30;5.30;;;10.30;99.90;;;;;;5055311;28;20111;-65
2022/01/10 09:41:15;;;;;;;9.50;5.35;;;9.80;99.90;;;;;;5040811;28;20032;-65
2022/01/10 09:43:53;;;;;;;13.15;5.15;;;10.00;99.90;;;;;;5046451;28;20032;-65
2022/01/10 09:46:19;;;;;;;10.63;4.78;;;9.80;99.90;;;;;;5040538;28;20116;-65
2022/01/10 09:48:45;;;;;;;9.48;4.93;;;11.00;99.90;;;;;;5041549;28;20561;-65
2022/01/10 09:51:12;;;;;;;8.35;4.68;;;10.60;99.90;;;;;;5047650;28;20032;-65
2022/01/10 09:53:37;;;;;;;8.40;4.32;;;9.80;99.90;;;;;;5037978;28;20553;-65
2022/01/10 09:56:03;;;;;;;7.72;4.63;;;10.00;99.90;;;;;;5046708;28;20033;-65
2022/01/10 09:58:29;;;;;;;9.82;5.25;;;10.20;99.90;;;;;;5038965;28;20083;-65
2022/01/10 10:00:56;;;;;;;8.98;5.22;;;10.10;99.90;;;;;;5042150;28;20041;-64
2022/01/10 10:03:24;;;;;;;7.72;3.75;;;10.00;99.90;;;;;;5047516;28;20107;-65
2022/01/10 10:05:57;;;;;;;8.02;4.40;;;10.40;99.90;;;;;;5046301;28;20060;-65
2022/01/10 10:08:24;;;;;;;6.93;4.00;;;10.40;99.90;;;;;;5045469;28;20036;-65
2022/01/10 10:10:52;;;;;;;9.65;4.70;;;11.00;99.90;;;;;;5048060;28;20036;-65
2022/01/10 10:13:19;;;;;;;7.47;4.13;;;10.20;99.90;;;;;;5052780;28;20098;-65
2022/01/10 10:15:46;;;;;;;7.68;4.20;;;9.70;99.90;;;;;;5042294;28;20025;-65
2022/01/10 10:18:13;;;;;;;8.55;5.05;;;11.00;99.90;;;;;;5041332;28;21280;-65
2022/01/10 10:20:41;;;;;;;8.70;5.15;;;10.20;99.90;;;;;;5048155;28;23426;-65
2022/01/10 10:23:13;;;;;;;8.60;5.40;;;9.50;99.90;;;;;;5038764;28;20017;-65
2022/01/10 10:25:45;;;;;;;8.65;5.68;;;10.10;99.90;;;;;;5045281;28;20025;-65
2022/01/10 10:28:13;;;;;;;10.30;5.95;;;10.50;99.90;;;;;;5040314;28;20485;-65
2022/01/10 10:30:39;;;;;;;9.18;5.88;;;10.20;99.90;;;;;;5036754;28;20025;-65
2022/01/10 10:33:19;;;;;;;9.85;5.80;;;10.70;99.90;;;;;;5046961;28;20044;-65
2022/01/10 10:35:53;;;;;;;9.35;6.07;;;10.30;99.90;;;;;;5046619;28;20128;-65
2022/01/10 10:38:19;;;;;;;11.60;6.35;;;10.40;99.90;;;;;;5048635;28;20051;-65
2022/01/10 10:40:45;;;;;;;8.85;5.90;;;10.60;99.90;;;;;;5037529;28;20386;-65
2022/01/10 10:43:11;;;;;;;8.98;5.47;;;10.70;99.90;;;;;;5043194;28;20032;-65
2022/01/10 10:45:38;;;;;;;10.45;6.20;;;10.80;99.90;;;;;;5044388;28;20548;-65
2022/01/10 10:48:07;;;;;;;10.85;6.53;;;10.90;99.90;;;;;;5040945;28;20386;-65
2022/01/10 10:50:47;;;;;;;9.88;6.30;;;10.90;99.90;;;;;;5045303;28;20481;-65
2022/01/10 10:53:14;;;;;;;8.55;4.50;;;11.00;99.90;;;;;;5048327;28;20040;-65
2022/01/10 10:55:44;;;;;;;8.32;5.20;;;11.00;99.90;;;;;;5042918;28;20341;-65
2022/01/10 10:58:11;;;;;;;9.15;4.50;;;11.00;99.90;;;;;;5037119;28;20033;-64
2022/01/10 11:00:37;;;;;;;8.07;3.60;;;11.00;99.90;;;;;;5045294;28;20122;-65
2022/01/10 11:03:05;;;;;;;6.35;3.63;;;11.10;99.90;;;;;;5045771;28;20036;-65
2022/01/10 11:05:33;;;;;;;6.68;3.83;;;11.20;99.90;;;;;;5043422;28;20522;-65
2022/01/10 11:07:59;;;;;;;6.07;3.38;;;11.20;99.90;;;;;;5045344;28;20082;-65
2022/01/10 11:10:25;;;;;;;7.38;3.53;;;11.20;99.90;;;;;;5044518;28;20104;-65
2022/01/10 11:12:55;;;;;;;6.40;3.80;;;11.30;99.90;;;;;;5045684;28;20116;-65
2022/01/10 11:15:23;;;;;;;7.60;3.67;;;11.30;99.90;;;;;;5047628;28;20048;-65
2022/01/10 11:17:50;;;;;;;8.45;3.50;;;11.40;99.90;;;;;;5052978;28;20158;-65
2022/01/10 11:20:22;;;;;;;5.97;3.28;;;11.40;99.90;;;;;;5051316;28;20029;-65
2022/01/10 11:22:50;;;;;;;6.82;2.97;;;11.50;99.90;;;;;;5035181;28;20029;-65
2022/01/10 11:25:24;;;;;;;7.07;4.40;;;11.50;99.90;;;;;;5034023;28;20018;-65
2022/01/10 11:27:52;;;;;;;5.68;3.17;;;11.50;99.90;;;;;;5033594;28;20187;-65
2022/01/10 11:30:22;;;;;;;5.30;3.03;;;11.50;99.90;;;;;;5042741;28;20053;-65
2022/01/10 11:33:04;;;;;;;5.45;3.00;;;11.50;99.90;;;;;;5046867;28;20029;-65
2022/01/10 11:35:48;;;;;;;6.57;3.38;;;11.50;99.90;;;;;;5044073;28;20108;-65
2022/01/10 11:38:29;;;;;;;5.50;3.33;;;11.50;99.90;;;;;;5047190;28;20029;-65
2022/01/10 11:41:12;;;;;;;6.75;3.88;;;11.50;99.90;;;;;;5046678;28;20108;-65
2022/01/10 11:43:43;;;;;;;6.60;3.65;;;11.50;99.90;;;;;;5042264;28;20153;-65
2022/01/10 11:46:11;;;;;;;;;;;11.50;99.90;;;;;;5043188;28;20033;-65
2022/01/10 11:48:50;;;;;;;7.82;3.40;;;11.50;99.90;;;;;;5045675;28;19908;-65
2022/01/10 11:51:22;;;;;;;8.15;3.40;;;11.60;99.90;;;;;;5045420;28;20025;-65
2022/01/10 11:54:13;;;;;;;6.82;4.18;;;11.50;99.90;;;;;;5045285;28;20483;-65
2022/01/10 11:56:42;;;;;;;6.15;3.78;;;11.60;99.90;;;;;;5044712;28;20021;-65
2022/01/10 11:59:21;;;;;;;6.75;3.80;;;11.70;99.90;;;;;;5033555;28;20116;-65
2022/01/10 12:01:49;;;;;;;6.78;4.05;;;11.70;99.90;;;;;;5041170;28;20601;-65
2022/01/10 12:04:15;;;;;;;7.07;4.45;;;11.70;99.90;;;;;;5033790;28;20604;-65
2022/01/10 12:06:41;;;;;;;6.53;4.05;;;11.70;99.90;;;;;;5033694;28;20461;-66
2022/01/10 12:09:07;;;;;;;7.55;4.20;;;11.70;99.90;;;;;;5044064;28;20037;-65
2022/01/10 12:11:34;;;;;;;7.75;4.00;;;11.70;99.90;;;;;;5045203;28;20021;-65
2022/01/10 12:14:00;;;;;;;7.22;4.18;;;11.70;99.90;;;;;;5036556;28;20087;-65
2022/01/10 12:16:27;;;;;;;8.70;3.95;;;11.70;99.90;;;;;;5035745;28;20030;-66
2022/01/10 12:18:54;;;;;;;18.10;8.43;;;11.80;99.90;;;;;;5037988;28;20396;-65
2022/01/10 12:21:20;;;;;;;17.50;10.55;;;11.80;99.90;;;;;;5044569;28;20021;-66
2022/01/10 12:23:47;;;;;;;6.88;4.00;;;11.80;99.90;;;;;;5041419;28;20034;-66
2022/01/10 12:26:13;;;;;;;6.97;3.60;;;11.70;99.90;;;;;;5047613;28;20027;-66
2022/01/10 12:28:40;;;;;;;7.93;3.72;;;11.60;99.90;;;;;;5038712;28;20467;-66
2022/01/10 12:31:06;;;;;;;7.97;3.72;;;11.60;99.90;;;;;;5040892;28;20018;-66
2022/01/10 12:33:33;;;;;;;7.20;3.90;;;11.60;99.90;;;;;;5035644;28;20049;-66
2022/01/10 12:36:02;;;;;;;6.75;3.60;;;11.70;99.90;;;;;;5048133;28;20074;-66
2022/01/10 12:38:28;;;;;;;4.95;2.88;;;11.70;99.90;;;;;;5048039;28;20119;-66
2022/01/10 12:40:54;;;;;;;5.63;3.35;;;11.60;99.90;;;;;;5036275;28;20489;-66
2022/01/10 12:43:20;;;;;;;9.73;3.40;;;11.70;99.90;;;;;;5046490;28;20426;-66
2022/01/10 12:45:47;;;;;;;7.57;3.63;;;11.70;99.90;;;;;;5049646;28;20114;-66
2022/01/10 12:48:14;;;;;;;6.03;4.18;;;11.60;99.90;;;;;;5049859;28;20029;-67
2022/01/10 12:50:41;;;;;;;6.97;4.10;;;11.60;99.90;;;;;;5048530;28;20464;-66
2022/01/10 12:53:07;;;;;;;7.20;4.70;;;11.60;99.90;;;;;;5047617;28;20056;-66
2022/01/10 12:55:33;;;;;;;6.32;4.00;;;11.60;99.90;;;;;;5046374;28;20496;-66
2022/01/10 12:57:59;;;;;;;5.90;3.47;;;11.50;99.90;;;;;;5047545;28;20381;-66